Bristol, Tennessee
Current Conditions -  °F | °C
As of 5:15 AM on Monday 26 Jan 2015 (Local Time) from KVJI Reporting Station
Light Rain Light Rain  
Wind Chill: 37°   Ceiling: 1400
Heat Index: 41°   Visibility: 10mi
Dew Point: 39°   Wind: 6mph
Humidity: 91%   Direction: 240°WSW
Pressure: 29.62"   Gusts: NA
Location:  36.59°N, 82.22°W
Report Text: KVJI 261015Z AUTO 24005KT 10SM -RA SCT008 OVC014 05/04 A2962 RMK AO2 P0002 T00500037
Loading
Personal Weather Stations






























Interactive Weather Map New forecast layout! Learn more

10-Day Weather Forecast

Advertisements
Track Severe Weather on mobile